createdAt,value
2018-03-14T00:00:43.020Z,12.96
2018-03-14T00:03:10.636Z,12.81
2018-03-14T00:05:38.205Z,12.75
2018-03-14T00:08:05.803Z,12.73
2018-03-14T00:10:33.355Z,12.81
2018-03-14T00:13:00.912Z,12.96
2018-03-14T00:15:28.520Z,13.02
2018-03-14T00:17:56.088Z,13.02
2018-03-14T00:20:23.688Z,13.14
2018-03-14T00:22:51.262Z,13.11
2018-03-14T00:25:18.861Z,13.03
2018-03-14T00:27:46.424Z,12.88
2018-03-14T00:30:14.972Z,12.72
2018-03-14T00:32:42.528Z,12.74
2018-03-14T00:35:10.129Z,12.86
2018-03-14T00:37:38.644Z,12.79
2018-03-14T00:40:06.256Z,12.54
2018-03-14T00:42:33.858Z,12.43
2018-03-14T00:45:01.433Z,12.32
2018-03-14T00:47:29.048Z,12.34
2018-03-14T00:49:57.625Z,12.50
2018-03-14T00:52:25.185Z,12.61
2018-03-14T00:54:52.792Z,12.33
2018-03-14T00:57:20.364Z,12.32
2018-03-14T00:59:48.320Z,12.26
2018-03-14T01:02:15.961Z,12.34
2018-03-14T01:04:43.540Z,12.59
2018-03-14T01:07:11.246Z,12.71
2018-03-14T01:09:39.332Z,12.79
2018-03-14T01:12:06.886Z,12.89
2018-03-14T01:14:34.547Z,13.02
2018-03-14T01:17:02.618Z,12.85
2018-03-14T01:19:30.234Z,12.70
2018-03-14T01:21:58.454Z,12.43
2018-03-14T01:24:26.700Z,12.21
2018-03-14T01:26:54.311Z,12.17
2018-03-14T01:29:21.881Z,12.03
2018-03-14T01:31:49.447Z,11.98
2018-03-14T01:34:17.263Z,11.98
2018-03-14T01:36:44.824Z,11.90
2018-03-14T01:39:12.658Z,11.81
2018-03-14T01:41:40.560Z,11.53
2018-03-14T01:44:08.178Z,11.57
2018-03-14T01:46:35.743Z,11.69
2018-03-14T01:49:04.081Z,11.73
2018-03-14T01:51:31.635Z,11.83
2018-03-14T01:54:00.044Z,11.84
2018-03-14T01:56:27.652Z,11.82
2018-03-14T01:58:55.211Z,11.92
2018-03-14T02:01:22.816Z,12.00
2018-03-14T02:03:50.375Z,11.90
2018-03-14T02:06:18.163Z,11.88
2018-03-14T02:08:45.728Z,11.73
2018-03-14T02:11:13.296Z,11.74
2018-03-14T02:13:41.384Z,11.68
2018-03-14T02:16:08.960Z,11.67
2018-03-14T02:18:36.549Z,11.66
2018-03-14T02:21:04.172Z,11.69
2018-03-14T02:23:31.784Z,11.74
2018-03-14T02:25:59.970Z,11.64
2018-03-14T02:28:27.574Z,11.60
2018-03-14T02:30:55.141Z,11.73
2018-03-14T02:33:23.293Z,11.78
2018-03-14T02:35:50.860Z,11.84
2018-03-14T02:38:18.451Z,11.95
2018-03-14T02:40:46.331Z,12.16
2018-03-14T02:43:13.953Z,12.08
2018-03-14T02:45:41.504Z,12.09
2018-03-14T02:48:09.456Z,12.01
2018-03-14T02:50:37.757Z,11.91
2018-03-14T02:53:05.289Z,11.83
2018-03-14T02:55:33.326Z,11.67
2018-03-14T02:58:00.912Z,11.33
2018-03-14T03:00:28.447Z,11.33
2018-03-14T03:02:56.032Z,11.30
2018-03-14T03:05:24.087Z,11.41
2018-03-14T03:07:51.627Z,11.40
2018-03-14T03:10:19.214Z,11.35
2018-03-14T03:12:46.795Z,11.45
2018-03-14T03:15:14.382Z,11.60
2018-03-14T03:17:41.919Z,11.66
2018-03-14T03:20:09.451Z,11.61
2018-03-14T03:22:37.032Z,11.53
2018-03-14T03:25:04.616Z,11.55
2018-03-14T03:27:32.852Z,11.60
2018-03-14T03:30:00.433Z,11.52
2018-03-14T03:32:27.979Z,11.48
2018-03-14T03:34:55.576Z,11.51
2018-03-14T03:37:23.129Z,11.45
2018-03-14T03:39:50.676Z,11.53
2018-03-14T03:42:18.256Z,11.66
2018-03-14T03:44:45.834Z,11.74
2018-03-14T03:47:13.376Z,11.84
2018-03-14T03:49:40.972Z,11.91
2018-03-14T03:52:08.517Z,11.77
2018-03-14T03:54:36.065Z,11.82
2018-03-14T03:57:03.650Z,11.81
2018-03-14T03:59:31.183Z,11.85
2018-03-14T04:01:58.744Z,11.80
2018-03-14T04:04:26.328Z,11.74
2018-03-14T04:06:53.912Z,11.80
2018-03-14T04:09:21.456Z,11.91
2018-03-14T04:11:49.040Z,11.82
2018-03-14T04:14:16.579Z,11.71
2018-03-14T04:16:44.641Z,11.49
2018-03-14T04:19:12.348Z,11.35
2018-03-14T04:21:39.892Z,11.31
2018-03-14T04:24:07.472Z,11.30
2018-03-14T04:26:35.310Z,11.35
2018-03-14T04:29:02.900Z,11.15
2018-03-14T04:31:30.446Z,11.17
2018-03-14T04:33:58.772Z,11.06
2018-03-14T04:36:26.358Z,11.25
2018-03-14T04:38:53.907Z,11.26
2018-03-14T04:41:21.894Z,11.31
2018-03-14T04:43:49.459Z,11.25
2018-03-14T04:46:17.061Z,11.29
2018-03-14T04:48:44.867Z,11.22
2018-03-14T04:51:12.456Z,11.28
2018-03-14T04:53:40.088Z,11.21
2018-03-14T04:56:07.853Z,11.24
2018-03-14T04:58:35.444Z,11.15
2018-03-14T05:01:03.122Z,11.25
2018-03-14T05:03:30.667Z,11.28
2018-03-14T05:05:58.221Z,11.34
2018-03-14T05:08:25.812Z,11.39
2018-03-14T05:10:53.372Z,11.45
2018-03-14T05:13:20.962Z,11.55
2018-03-14T05:15:48.565Z,11.78
2018-03-14T05:18:16.113Z,11.61
2018-03-14T05:20:43.706Z,11.41
2018-03-14T05:23:11.242Z,11.40
2018-03-14T05:25:38.832Z,11.47
2018-03-14T05:28:06.390Z,11.42
2018-03-14T05:30:34.291Z,11.52
2018-03-14T05:33:01.841Z,11.51
2018-03-14T05:35:29.422Z,11.45
2018-03-14T05:37:56.973Z,11.53
2018-03-14T05:40:24.555Z,11.68
2018-03-14T05:42:52.501Z,11.62
2018-03-14T05:45:20.093Z,11.65
2018-03-14T05:47:48.041Z,11.86
2018-03-14T05:50:15.635Z,11.94
2018-03-14T05:52:43.643Z,12.08
2018-03-14T05:55:11.179Z,12.05
2018-03-14T05:57:38.774Z,11.91
2018-03-14T06:00:06.325Z,11.88
2018-03-14T06:02:33.896Z,12.07
2018-03-14T06:05:01.595Z,11.90
2018-03-14T06:07:29.775Z,11.99
2018-03-14T06:09:57.381Z,11.94
2018-03-14T06:12:24.983Z,12.11
2018-03-14T06:14:52.531Z,12.25
2018-03-14T06:17:20.354Z,12.30
2018-03-14T06:19:48.810Z,12.22
2018-03-14T06:22:16.632Z,12.32
2018-03-14T06:24:44.516Z,12.27
2018-03-14T06:27:12.125Z,12.33
2018-03-14T06:29:39.979Z,12.28
2018-03-14T06:32:07.570Z,12.19
2018-03-14T06:34:36.444Z,12.29
2018-03-14T06:37:05.750Z,12.17
2018-03-14T06:39:33.541Z,12.20
2018-03-14T06:42:01.500Z,12.37
2018-03-14T06:44:29.356Z,12.38
2018-03-14T06:46:56.960Z,12.49
2018-03-14T06:49:25.375Z,12.54
2018-03-14T06:51:52.958Z,12.60
2018-03-14T06:54:20.710Z,12.65
2018-03-14T06:56:48.557Z,12.49
2018-03-14T07:02:28.069Z,12.46
2018-03-14T07:05:07.446Z,12.37
2018-03-14T07:07:34.991Z,12.47
2018-03-14T07:10:02.685Z,12.66
2018-03-14T07:12:30.279Z,12.65
2018-03-14T07:14:57.817Z,12.50
2018-03-14T07:17:26.374Z,12.56
2018-03-14T07:19:53.923Z,12.54
2018-03-14T07:22:21.996Z,12.52
2018-03-14T07:24:49.566Z,12.63
2018-03-14T07:27:17.198Z,12.84
2018-03-14T07:29:44.746Z,13.04
2018-03-14T07:32:12.329Z,13.20
2018-03-14T07:34:39.876Z,13.42
2018-03-14T07:37:07.479Z,13.71
2018-03-14T07:39:35.072Z,13.95
2018-03-14T07:42:02.979Z,14.12
2018-03-14T07:44:30.523Z,14.18
2018-03-14T07:46:58.054Z,14.10
2018-03-14T07:49:25.869Z,14.02
2018-03-14T07:51:54.861Z,14.23
2018-03-14T07:54:23.024Z,14.30
2018-03-14T07:56:50.828Z,14.38
2018-03-14T07:59:18.560Z,14.69
2018-03-14T08:01:46.147Z,15.02
2018-03-14T08:04:14.497Z,15.24
2018-03-14T08:06:42.081Z,15.43
2018-03-14T08:09:09.607Z,15.66
2018-03-14T08:11:37.382Z,16.03
2018-03-14T08:14:05.738Z,16.29
2018-03-14T08:16:33.346Z,16.44
2018-03-14T08:19:00.922Z,16.48
2018-03-14T08:21:28.513Z,16.65
2018-03-14T08:23:56.061Z,16.79
2018-03-14T08:26:23.700Z,16.74
2018-03-14T08:28:51.284Z,16.78
2018-03-14T08:31:18.857Z,16.88
2018-03-14T08:33:46.402Z,16.91
2018-03-14T08:36:14.032Z,17.03
2018-03-14T08:38:41.621Z,17.08
2018-03-14T08:41:10.034Z,17.12
2018-03-14T08:43:37.614Z,17.32
2018-03-14T08:46:05.168Z,17.64
2018-03-14T08:48:32.734Z,17.73
2018-03-14T08:51:00.270Z,17.92
2018-03-14T08:53:28.684Z,17.97
2018-03-14T08:55:56.246Z,18.01
2018-03-14T08:58:24.325Z,18.04
2018-03-14T09:00:51.859Z,17.99
2018-03-14T09:03:19.546Z,18.06
2018-03-14T09:05:47.084Z,18.02
2018-03-14T09:08:14.619Z,18.08
2018-03-14T09:10:42.888Z,18.13
2018-03-14T09:13:10.436Z,18.35
2018-03-14T09:15:38.248Z,18.30
2018-03-14T09:18:05.787Z,18.26
2018-03-14T09:20:33.371Z,18.44
2018-03-14T09:23:00.906Z,18.60
2018-03-14T09:25:28.561Z,18.63
2018-03-14T09:27:56.152Z,18.65
2018-03-14T09:30:23.731Z,18.68
2018-03-14T09:32:51.317Z,18.79
2018-03-14T09:35:18.896Z,18.64
2018-03-14T09:37:46.473Z,18.59
2018-03-14T09:40:14.477Z,18.71
2018-03-14T09:42:42.010Z,18.58
2018-03-14T09:45:10.406Z,18.40
2018-03-14T09:47:38.042Z,18.37
2018-03-14T09:50:05.622Z,18.35
2018-03-14T09:52:33.150Z,18.25
2018-03-14T09:55:00.742Z,18.32
2018-03-14T09:57:28.294Z,18.31
2018-03-14T09:59:55.895Z,18.28
2018-03-14T10:02:23.819Z,18.36
2018-03-14T10:04:52.396Z,18.43
2018-03-14T10:07:20.002Z,18.47
2018-03-14T10:09:47.591Z,18.53
2018-03-14T10:12:15.194Z,18.64
2018-03-14T10:14:42.775Z,18.70
2018-03-14T10:17:10.865Z,18.71
2018-03-14T10:19:38.408Z,18.73
2018-03-14T10:22:05.978Z,18.44
2018-03-14T10:24:33.519Z,18.46
2018-03-14T10:27:02.055Z,18.44
2018-03-14T10:29:31.526Z,18.65
2018-03-14T10:32:00.046Z,18.71
2018-03-14T10:34:28.356Z,18.78
2018-03-14T10:36:55.899Z,18.58
2018-03-14T10:39:23.483Z,18.50
2018-03-14T10:41:51.027Z,18.17
2018-03-14T10:44:18.603Z,18.31
2018-03-14T10:46:46.184Z,18.59
2018-03-14T10:49:13.803Z,18.77
2018-03-14T10:51:41.391Z,18.73
2018-03-14T10:54:09.276Z,18.82
2018-03-14T10:56:36.850Z,18.94
2018-03-14T10:59:05.590Z,18.90
2018-03-14T11:04:43.174Z,18.83
2018-03-14T11:07:10.727Z,18.74
2018-03-14T11:09:38.323Z,18.73
2018-03-14T11:12:06.167Z,18.71
2018-03-14T11:14:33.710Z,18.71
2018-03-14T11:17:01.866Z,18.69
2018-03-14T11:19:29.428Z,18.68
2018-03-14T11:21:57.003Z,18.72
2018-03-14T11:24:24.547Z,18.84
2018-03-14T11:26:52.278Z,18.91
2018-03-14T11:29:19.815Z,19.02
2018-03-14T11:31:48.199Z,19.07
2018-03-14T11:34:15.743Z,18.94
2018-03-14T11:36:43.325Z,19.00
2018-03-14T11:39:11.094Z,18.90
2018-03-14T11:41:39.631Z,18.74
2018-03-14T11:44:07.545Z,18.50
2018-03-14T11:46:35.098Z,18.49
2018-03-14T11:49:02.638Z,18.57
2018-03-14T11:51:30.224Z,18.57
2018-03-14T11:53:57.799Z,18.39
2018-03-14T11:56:25.375Z,18.17
2018-03-14T11:58:53.181Z,18.24
2018-03-14T12:01:20.754Z,18.16
2018-03-14T12:03:48.297Z,18.00
2018-03-14T12:06:15.880Z,17.92
2018-03-14T12:08:43.536Z,17.80
2018-03-14T12:11:11.084Z,17.84
2018-03-14T12:13:38.610Z,17.60
2018-03-14T12:16:06.200Z,17.53
2018-03-14T12:18:34.369Z,17.31
2018-03-14T12:21:02.129Z,17.27
2018-03-14T12:23:29.744Z,17.20
2018-03-14T12:25:57.318Z,17.07
2018-03-14T12:28:25.783Z,17.01
2018-03-14T12:30:53.525Z,17.05
2018-03-14T12:33:21.075Z,16.87
2018-03-14T12:35:48.664Z,16.85
2018-03-14T12:38:16.376Z,16.67
2018-03-14T12:40:44.846Z,16.64
2018-03-14T12:43:12.666Z,16.65
2018-03-14T12:45:40.494Z,16.59
2018-03-14T12:48:08.077Z,16.47
2018-03-14T12:50:35.960Z,16.30
2018-03-14T12:53:03.543Z,15.95
2018-03-14T12:55:31.114Z,15.75
2018-03-14T12:57:58.703Z,15.62
2018-03-14T13:00:27.102Z,15.48
2018-03-14T13:02:54.633Z,15.26
2018-03-14T13:05:22.162Z,15.19
2018-03-14T13:07:49.743Z,15.26
2018-03-14T13:10:19.132Z,15.10
2018-03-14T13:12:46.707Z,14.95
2018-03-14T13:15:14.528Z,14.82
2018-03-14T13:17:43.864Z,14.73
2018-03-14T13:20:11.454Z,14.58
2018-03-14T13:22:40.179Z,14.66
2018-03-14T13:25:07.776Z,14.55
2018-03-14T13:27:35.497Z,14.63
2018-03-14T13:30:03.049Z,14.63
2018-03-14T13:32:30.652Z,14.55
2018-03-14T13:34:58.218Z,14.45
2018-03-14T13:37:25.766Z,14.36
2018-03-14T13:39:53.314Z,14.33
2018-03-14T13:42:20.913Z,14.23
2018-03-14T13:44:48.503Z,14.26
2018-03-14T13:47:16.092Z,14.34
2018-03-14T13:49:43.680Z,14.45
2018-03-14T13:52:11.284Z,14.55
2018-03-14T13:54:39.135Z,14.51
2018-03-14T13:57:06.678Z,14.53
2018-03-14T13:59:34.464Z,14.73
2018-03-14T14:02:02.039Z,14.98
2018-03-14T14:04:29.575Z,15.09
2018-03-14T14:06:57.167Z,15.04
2018-03-14T14:09:24.836Z,15.17
2018-03-14T14:11:52.448Z,15.37
2018-03-14T14:14:19.995Z,15.50
2018-03-14T14:16:48.412Z,15.61
2018-03-14T14:19:15.953Z,15.69
2018-03-14T14:21:43.596Z,15.76
2018-03-14T14:24:11.147Z,15.81
2018-03-14T14:26:38.750Z,15.98
2018-03-14T14:29:06.291Z,16.19
2018-03-14T14:31:33.841Z,16.45
2018-03-14T14:34:01.428Z,16.65
2018-03-14T14:36:29.025Z,16.85
2018-03-14T14:38:56.556Z,16.99
2018-03-14T14:41:24.145Z,17.05
2018-03-14T14:43:51.687Z,17.04
2018-03-14T14:46:19.280Z,16.99
2018-03-14T14:48:46.899Z,17.10
2018-03-14T14:51:14.440Z,17.07
2018-03-14T14:53:42.244Z,17.14
2018-03-14T14:56:09.776Z,17.14
2018-03-14T14:58:38.197Z,17.10
2018-03-14T15:01:05.756Z,17.04
2018-03-14T15:03:33.342Z,17.00
2018-03-14T15:06:01.155Z,17.02
2018-03-14T15:08:28.711Z,16.94
2018-03-14T15:10:56.304Z,16.74
2018-03-14T15:13:23.837Z,16.49
2018-03-14T15:15:51.802Z,16.20
2018-03-14T15:18:19.330Z,16.12
2018-03-14T15:20:46.899Z,16.21
2018-03-14T15:23:14.431Z,16.12
2018-03-14T15:25:42.627Z,16.08
2018-03-14T15:28:10.162Z,15.91
2018-03-14T15:30:38.370Z,15.74
2018-03-14T15:33:05.907Z,15.57
2018-03-14T15:35:33.716Z,15.43
2018-03-14T15:38:01.273Z,15.37
2018-03-14T15:40:28.987Z,15.40
2018-03-14T15:42:56.717Z,15.28
2018-03-14T15:45:25.695Z,15.26
2018-03-14T15:47:53.727Z,15.30
2018-03-14T15:50:21.536Z,15.19
2018-03-14T15:52:49.571Z,15.17
2018-03-14T15:55:18.176Z,15.05
2018-03-14T15:57:45.766Z,15.09
2018-03-14T16:00:13.302Z,14.96
2018-03-14T16:02:41.204Z,14.95
2018-03-14T16:05:08.836Z,14.86
2018-03-14T16:07:36.415Z,14.82
2018-03-14T16:10:04.966Z,14.91
2018-03-14T16:12:33.045Z,14.76
2018-03-14T16:15:00.625Z,14.84
2018-03-14T16:17:28.368Z,14.72
2018-03-14T16:19:56.539Z,14.67
2018-03-14T16:22:24.743Z,14.67
2018-03-14T16:24:52.320Z,14.65
2018-03-14T16:27:19.961Z,14.73
2018-03-14T16:29:47.871Z,14.74
2018-03-14T16:32:15.468Z,14.73
2018-03-14T16:34:43.020Z,14.82
2018-03-14T16:37:10.620Z,14.85
2018-03-14T16:39:38.163Z,15.03
2018-03-14T16:42:06.188Z,14.98
2018-03-14T16:44:33.847Z,14.85
2018-03-14T16:47:02.264Z,14.66
2018-03-14T16:49:30.236Z,14.49
2018-03-14T16:51:58.031Z,14.51
2018-03-14T16:54:25.582Z,14.45
2018-03-14T16:56:53.311Z,14.52
2018-03-14T16:59:21.660Z,14.57
2018-03-14T17:01:49.202Z,14.55
2018-03-14T17:04:16.753Z,14.51
2018-03-14T17:06:45.374Z,14.41
2018-03-14T17:09:12.922Z,14.52
2018-03-14T17:11:41.133Z,14.55
2018-03-14T17:14:08.735Z,14.42
2018-03-14T17:16:36.819Z,14.20
2018-03-14T17:19:04.375Z,14.09
2018-03-14T17:21:31.968Z,14.07
2018-03-14T17:23:59.555Z,13.91
2018-03-14T17:26:27.128Z,13.94
2018-03-14T17:28:57.460Z,13.90
2018-03-14T17:31:25.972Z,13.97
2018-03-14T17:33:53.557Z,13.99
2018-03-14T17:36:21.142Z,13.94
2018-03-14T17:38:49.549Z,13.90
2018-03-14T17:41:17.083Z,13.87
2018-03-14T17:43:44.829Z,13.84
2018-03-14T17:46:12.431Z,13.78
2018-03-14T17:48:40.043Z,13.83
2018-03-14T17:51:07.587Z,13.86
2018-03-14T17:53:36.064Z,13.87
2018-03-14T17:56:03.933Z,13.96
2018-03-14T17:58:31.483Z,13.89
2018-03-14T18:00:59.074Z,13.85
2018-03-14T18:03:26.688Z,13.90
2018-03-14T18:05:54.291Z,13.90
2018-03-14T18:08:22.263Z,13.87
2018-03-14T18:10:49.793Z,13.92
2018-03-14T18:13:17.411Z,13.85
2018-03-14T18:15:45.827Z,13.93
2018-03-14T18:18:14.287Z,13.98
2018-03-14T18:20:42.540Z,14.02
2018-03-14T18:23:10.262Z,14.03
2018-03-14T18:25:38.779Z,14.02
2018-03-14T18:28:06.367Z,14.06
2018-03-14T18:30:34.778Z,14.04
2018-03-14T18:33:02.392Z,14.05
2018-03-14T18:35:30.220Z,13.78
2018-03-14T18:37:59.279Z,13.83
2018-03-14T18:40:28.390Z,13.77
2018-03-14T18:42:55.922Z,13.81
2018-03-14T18:45:24.361Z,13.85
2018-03-14T18:47:51.950Z,13.88
2018-03-14T18:50:19.538Z,13.83
2018-03-14T18:52:47.124Z,13.75
2018-03-14T18:55:14.705Z,13.86
2018-03-14T18:57:42.295Z,13.94
2018-03-14T19:00:09.882Z,13.94
2018-03-14T19:02:37.423Z,13.94
2018-03-14T19:05:05.777Z,13.83
2018-03-14T19:07:33.359Z,13.88
2018-03-14T19:10:02.145Z,13.97
2018-03-14T19:12:30.270Z,13.96
2018-03-14T19:14:57.811Z,14.04
2018-03-14T19:17:28.027Z,14.04
2018-03-14T19:19:56.239Z,13.91
2018-03-14T19:22:23.872Z,13.84
2018-03-14T19:24:52.545Z,13.76
2018-03-14T19:27:20.879Z,13.79
2018-03-14T19:29:50.656Z,13.69
2018-03-14T19:32:18.249Z,13.61
2018-03-14T19:34:45.801Z,13.75
2018-03-14T19:37:13.371Z,13.96
2018-03-14T19:39:40.907Z,13.96
2018-03-14T19:42:08.768Z,13.90
2018-03-14T19:44:36.324Z,13.63
2018-03-14T19:47:03.907Z,13.66
2018-03-14T19:49:31.613Z,13.62
2018-03-14T19:51:59.431Z,13.68
2018-03-14T19:54:27.001Z,13.62
2018-03-14T19:56:54.563Z,13.41
2018-03-14T19:59:22.115Z,13.47
2018-03-14T20:01:49.968Z,13.17
2018-03-14T20:04:17.527Z,13.07
2018-03-14T20:06:45.115Z,13.00
2018-03-14T20:09:12.706Z,13.00
2018-03-14T20:11:40.263Z,13.02
2018-03-14T20:14:08.819Z,13.11
2018-03-14T20:16:36.355Z,13.23
2018-03-14T20:19:03.936Z,13.37
2018-03-14T20:21:31.941Z,13.44
2018-03-14T20:23:59.475Z,13.40
2018-03-14T20:26:27.043Z,13.34
2018-03-14T20:28:54.623Z,13.35
2018-03-14T20:31:22.182Z,13.33
2018-03-14T20:33:49.771Z,13.44
2018-03-14T20:36:17.303Z,13.37
2018-03-14T20:38:44.848Z,13.30
2018-03-14T20:41:12.873Z,13.35
2018-03-14T20:43:40.433Z,13.39
2018-03-14T20:46:08.018Z,13.34
2018-03-14T20:48:35.555Z,13.44
2018-03-14T20:51:03.126Z,13.47
2018-03-14T20:53:30.668Z,13.48
2018-03-14T20:55:59.047Z,13.43
2018-03-14T20:58:26.654Z,13.42
2018-03-14T21:00:54.196Z,13.45
2018-03-14T21:03:22.621Z,13.37
2018-03-14T21:05:50.163Z,13.38
2018-03-14T21:08:18.066Z,13.34
2018-03-14T21:10:45.660Z,13.20
2018-03-14T21:13:13.371Z,13.13
2018-03-14T21:15:40.960Z,13.09
2018-03-14T21:18:08.678Z,13.07
2018-03-14T21:20:36.262Z,13.02
2018-03-14T21:23:03.855Z,12.87
2018-03-14T21:25:31.678Z,12.91
2018-03-14T21:27:59.269Z,12.73
2018-03-14T21:30:26.808Z,12.56
2018-03-14T21:32:54.353Z,12.52
2018-03-14T21:35:22.060Z,12.56
2018-03-14T21:37:49.649Z,12.54
2018-03-14T21:40:17.179Z,12.38
2018-03-14T21:42:44.713Z,12.34
2018-03-14T21:45:12.499Z,12.36
2018-03-14T21:47:40.071Z,12.24
2018-03-14T21:50:07.648Z,12.11
2018-03-14T21:52:35.220Z,12.30
2018-03-14T21:55:02.752Z,12.36
2018-03-14T21:57:30.336Z,12.47
2018-03-14T21:59:58.162Z,12.52
2018-03-14T22:02:43.632Z,12.45
2018-03-14T22:05:11.207Z,12.64
2018-03-14T22:07:39.015Z,12.59
2018-03-14T22:10:06.593Z,12.44
2018-03-14T22:12:34.122Z,12.39
2018-03-14T22:15:02.086Z,12.44
2018-03-14T22:17:29.632Z,12.21
2018-03-14T22:19:57.783Z,12.23
2018-03-14T22:22:25.362Z,12.20
2018-03-14T22:24:52.904Z,12.21
2018-03-14T22:27:20.478Z,12.36
2018-03-14T22:29:49.028Z,12.57
2018-03-14T22:32:16.755Z,12.62
2018-03-14T22:34:44.705Z,12.73
2018-03-14T22:37:12.282Z,12.82
2018-03-14T22:39:39.810Z,12.78
2018-03-14T22:42:08.157Z,12.64
2018-03-14T22:44:35.994Z,12.59
2018-03-14T22:47:03.574Z,12.32
2018-03-14T22:49:31.176Z,12.31
2018-03-14T22:51:59.269Z,12.40
2018-03-14T22:54:26.841Z,12.36
2018-03-14T22:56:54.438Z,12.41
2018-03-14T22:59:22.018Z,12.45
2018-03-14T23:01:49.550Z,12.49
2018-03-14T23:04:17.131Z,12.41
2018-03-14T23:06:44.715Z,12.28
2018-03-14T23:09:12.287Z,12.29
2018-03-14T23:11:39.818Z,12.32
2018-03-14T23:14:08.118Z,12.22
2018-03-14T23:16:35.699Z,12.23
2018-03-14T23:19:03.434Z,12.11
2018-03-14T23:21:31.019Z,12.15
2018-03-14T23:23:58.599Z,12.01
2018-03-14T23:26:26.144Z,12.04
2018-03-14T23:28:53.682Z,11.98
2018-03-14T23:31:21.249Z,11.98
2018-03-14T23:33:50.108Z,11.97
2018-03-14T23:36:18.085Z,12.13
2018-03-14T23:38:45.614Z,12.15
2018-03-14T23:41:13.180Z,12.29
2018-03-14T23:43:40.750Z,12.29
2018-03-14T23:46:08.279Z,12.36
2018-03-14T23:48:35.859Z,12.28
2018-03-14T23:51:03.396Z,12.50
2018-03-14T23:53:30.976Z,12.48
2018-03-14T23:55:58.516Z,12.46
2018-03-14T23:58:26.098Z,12.63
